WetterOnline ( http://www.wetteronline.de )

Wetter aktuell Lübeck

Aktuelles Wetter: Lübeck/Blankensee (15m)

6-stündlich | Neueste Meldungen
Ortszeit Temperatur Wetter
Mi, 18.07. 8:00 17.1° C wolkig
Mi, 18.07. 2:00 18.5° C bewölkt
Di, 17.07. 20:00 27.0° C fast wolkenlos
Di, 17.07. 14:00 27.8° C leicht bewölkt
Di, 17.07. 8:00 18.6° C wolkenlos
Di, 17.07. 2:00 14.3° C wolkenlos
Mo, 16.07. 20:00 24.5° C wolkenlos
Mo, 16.07. 14:00 25.4° C fast wolkenlos
Ortszeit Temperatur Wetter
Mi, 18.07. 10:20 20° C bewölkt
Mi, 18.07. 10:00 19.6° C wolkig
Mi, 18.07. 9:50 19.6° C wolkig
Mi, 18.07. 9:40 19.5° C bewölkt
Mi, 18.07. 9:30 18.9° C bewölkt
Mi, 18.07. 9:20 18.9° C bewölkt
Mi, 18.07. 9:00 17.6° C bewölkt
Mi, 18.07. 8:30 17.8° C leicht bewölkt
Mi, 18.07. 8:00 17.1° C wolkig
Mi, 18.07. 7:30 16.4° C wolkig
Mi, 18.07. 7:00 16.0° C wolkig
Ortszeit Relative Feuchte Sichtweite
Mi, 18.07. 8:00 84% 10 km
Mi, 18.07. 2:00 76% 19 km
Di, 17.07. 20:00 43% 29 km
Di, 17.07. 14:00 37% 27 km
Di, 17.07. 8:00 79% 11 km
Di, 17.07. 2:00 97% 9 km
Mo, 16.07. 20:00 48% 26 km
Mo, 16.07. 14:00 36% 16 km
Ortszeit Relative Feuchte Sichtweite
Mi, 18.07. 10:20 73% >10 km
Mi, 18.07. 10:00 71% 13 km
Mi, 18.07. 9:50 71% -
Mi, 18.07. 9:40 73% -
Mi, 18.07. 9:30 77% 11 km
Mi, 18.07. 9:20 77% -
Mi, 18.07. 9:00 82% 9 km
Mi, 18.07. 8:30 82% 9 km
Mi, 18.07. 8:00 84% 10 km
Mi, 18.07. 7:30 87% 10 km
Mi, 18.07. 7:00 88% 9 km
Ortszeit Niederschlagsmenge Niederschlagsart
Mi, 18.07. 8:00 0.0 l/m2 in 12 Std. -
Mi, 18.07. 2:00 0.0 l/m2 in 6 Std. -
Di, 17.07. 20:00 0.0 l/m2 in 12 Std. -
Di, 17.07. 14:00 0.0 l/m2 in 6 Std. -
Di, 17.07. 8:00 0.0 l/m2 in 12 Std. -
Di, 17.07. 2:00 0.0 l/m2 in 6 Std. -
Mo, 16.07. 20:00 0.0 l/m2 in 12 Std. -
Mo, 16.07. 14:00 0.0 l/m2 in 6 Std. -
Ortszeit Niederschlagsmenge Niederschlagsart
Mi, 18.07. 10:20 keine Meldung -
Mi, 18.07. 10:00 0.0 l/m2 in 1 Std. -
Mi, 18.07. 9:50 keine Meldung -
Mi, 18.07. 9:40 keine Meldung -
Mi, 18.07. 9:30 0.0 l/m2 in 1 Std. -
Mi, 18.07. 9:20 keine Meldung -
Mi, 18.07. 9:00 0.0 l/m2 in 1 Std. -
Mi, 18.07. 8:30 0.0 l/m2 in 1 Std. -
Mi, 18.07. 8:00 0.0 l/m2 in 1 Std. -
Mi, 18.07. 7:30 0.0 l/m2 in 1 Std. -
Mi, 18.07. 7:00 0.0 l/m2 in 1 Std. -
Ortszeit Stärke Spitze Richtung
km/h Bft. km/h Grad Sektor
Mi, 18.07. 8:00 9 2 20 270° W
Mi, 18.07. 2:00 11 2 25 290° W
Di, 17.07. 20:00 9 2 31 30° NO
Di, 17.07. 14:00 4 1 18 360° N
Di, 17.07. 8:00 4 1 7 270° W
Di, 17.07. 2:00 0 0 22 - -
Mo, 16.07. 20:00 13 3 30 40° NO
Mo, 16.07. 14:00 18 3 25 20° N
Ortszeit Stärke Spitze Richtung
km/h Bft. km/h Grad Sektor
Mi, 18.07. 10:20 11 2 - 250° W
Mi, 18.07. 10:00 19 3 28 290° W
Mi, 18.07. 9:50 19 3 - 290° W
Mi, 18.07. 9:40 18 3 - 280° W
Mi, 18.07. 9:30 14 3 29 280° W
Mi, 18.07. 9:20 14 3 - 280° W
Mi, 18.07. 9:00 15 3 26 290° W
Mi, 18.07. 8:30 11 2 22 270° W
Mi, 18.07. 8:00 9 2 20 270° W
Mi, 18.07. 7:30 11 2 22 280° W
Mi, 18.07. 7:00 11 2 18 260° W
Ortszeit Untergrenze Bedeckung Gattung
total tief tief mittel hoch
Mi, 18.07. 8:00 8700 m 8/8 0/8 - - -
Mi, 18.07. 2:00 3600 m 8/8 4/8 - - -
Di, 17.07. 20:00 10500 m 2/8 0/8 - - -
Di, 17.07. 14:00 1800 m 2/8 2/8 - - -
Di, 17.07. 8:00 - 0/8 0/8 - - -
Di, 17.07. 2:00 - 0/8 0/8 - - -
Mo, 16.07. 20:00 - 0/8 0/8 - - -
Mo, 16.07. 14:00 9000 m 1/8 0/8 - - -
Ortszeit Bedeckungsgrad in Achtel und Wolkenuntergrenze
Mi, 18.07. 10:20 5-7(690m)
Mi, 18.07. 10:00 4(510m) 6(720m)
Mi, 18.07. 9:50 4(510m) 6(720m)
Mi, 18.07. 9:40 4(450m) 6(570m) 7(720m)
Mi, 18.07. 9:30 6(420m) 7(570m)
Mi, 18.07. 9:20 6(420m) 7(570m)
Mi, 18.07. 9:00 7(300m) 7(10500m)
Mi, 18.07. 8:30 3(300m) 5(8700m) 5(9000m)
Mi, 18.07. 8:00 8(8700m) 8(8700m) 8(9000m)
Mi, 18.07. 7:30 8(9000m) 8(9000m) 8(10500m)
Mi, 18.07. 7:00 8(9000m) 8(9000m) 8(10500m)
Ortszeit Luftdruck NN (hPa) Tendenz (hPa in 3 Std.)
Mi, 18.07. 8:00 1016 + 0,9
Mi, 18.07. 2:00 1015 + 1,2
Di, 17.07. 20:00 1012 + 0,2
Di, 17.07. 14:00 1013 - 0,7
Di, 17.07. 8:00 1013 + 0,2
Di, 17.07. 2:00 1014 + 0,1
Mo, 16.07. 20:00 1013 - 0,5
Mo, 16.07. 14:00 1015 - 0,6
Ortszeit Luftdruck NN (hPa) Tendenz (hPa in 3 Std.)
Mi, 18.07. 10:20 1016 keine Meldung
Mi, 18.07. 10:00 1016 + 0,5
Mi, 18.07. 9:50 1016 keine Meldung
Mi, 18.07. 9:40 1016 keine Meldung
Mi, 18.07. 9:30 1016 + 0,6
Mi, 18.07. 9:20 1016 keine Meldung
Mi, 18.07. 9:00 1016 + 0,7
Mi, 18.07. 8:30 1016 + 0,8
Mi, 18.07. 8:00 1016 + 0,9
Mi, 18.07. 7:30 1016 + 0,9
Mi, 18.07. 7:00 1016 + 0,9
Ortszeit Schneehöhe (cm)
Mi, 18.07. 8:00 -
Mi, 18.07. 2:00 -
Di, 17.07. 20:00 -
Di, 17.07. 14:00 -
Di, 17.07. 8:00 -
Di, 17.07. 2:00 -
Mo, 16.07. 20:00 -
Mo, 16.07. 14:00 -
Ortszeit Schneehöhe (cm)
Mi, 18.07. 10:20 -
Mi, 18.07. 10:00 -
Mi, 18.07. 9:50 -
Mi, 18.07. 9:40 -
Mi, 18.07. 9:30 -
Mi, 18.07. 9:20 -
Mi, 18.07. 9:00 -
Mi, 18.07. 8:30 -
Mi, 18.07. 8:00 -
Mi, 18.07. 7:30 -
Mi, 18.07. 7:00 -
Link zu dieser Seite / Seite empfehlen

Das Wetter in ...